Flight Track Log - Related Links

Times and Time Zones

All times are in EDT time to prevent confusion due to time zone crossing. See the UAL235 flight status page for this flight to view local times or setup timezone preferences in your user account.

Time Position Orientation Groundspeed Altitude Reporting Facility
EDT Latitude Longitude Course Direction KTS MPH feet Rate Location/Type
Sun 12:57:53 PM 38.9500 -77.5167 288° West 235 270 2,400  Level Potomac TRACON
Sun 12:58:53 PM 39.0000 -77.5833 314° West 278 320 4,700 2,700 Climbing Potomac TRACON
Sun 12:59:00 PM 39.2517 -77.5296 349° North  Level FlightAware Approximate
Sun 12:59:53 PM 39.0667 -77.6333 330° Northwest 305 351 7,800  Level Potomac TRACON
Sun 01:00:00 PM 39.3592 -77.5680 344° North  Level FlightAware Approximate
Sun 01:00:26 PM 39.1147 -77.6461 348° North 304 350 9,300  Level Washington Center
Sun 01:01:00 PM 39.4559 -77.6070 288° West  Level FlightAware Approximate
Sun 01:01:24 PM 39.1953 -77.6858 339° North 315 362 11,800  Level Washington Center
Sun 01:02:00 PM 39.4923 -77.7437 293° West  Level FlightAware Approximate
Sun 01:02:24 PM 39.2800 -77.7286 339° North 338 389 13,400  Level Washington Center
Sun 01:03:00 PM 39.5395 -77.8746 288° West  Level FlightAware Approximate
Sun 01:03:26 PM 39.3772 -77.7769 339° North 352 405 15,000  Level Washington Center
Sun 01:04:26 PM 39.4761 -77.8286 338° Northwest 373 429 17,000 1,729 Climbing Washington Center
Sun 01:05:24 PM 39.5536 -77.9169 319° Northwest 374 430 18,400 1,700 Climbing Washington Center
Sun 01:06:26 PM 39.5928 -78.0447 292° West 361 415 20,400 1,672 Climbing Washington Center
Sun 01:07:26 PM 39.6319 -78.1728 292° West 367 422 21,800 1,253 Climbing Washington Center
Sun 01:07:57 PM 39.6556 -78.2506 292° West 378 435 22,300 1,253 Climbing Cleveland Center
Sun 01:08:57 PM 39.6914 -78.3708 291° West 407 468 23,700 1,400 Climbing Cleveland Center
Sun 01:09:57 PM 39.7333 -78.5072 292° West 412 474 25,100 1,200 Climbing Cleveland Center
Sun 01:10:57 PM 39.7733 -78.6436 291° West 407 468 26,100 1,100 Climbing Cleveland Center
Sun 01:11:57 PM 39.8092 -78.7858 288° West 407 468 27,300 1,050 Climbing Cleveland Center
Sun 01:12:57 PM 39.8508 -78.9281 291° West 412 474 28,200 950 Climbing Cleveland Center
Sun 01:13:57 PM 39.8989 -79.0839 292° West 417 480 29,200 950 Climbing Cleveland Center
Sun 01:14:57 PM 39.9403 -79.2292 290° West 428 493 30,100 1,100 Climbing Cleveland Center
Sun 01:15:57 PM 39.9856 -79.3719 293° West 428 493 31,400 1,450 Climbing Cleveland Center
Sun 01:16:57 PM 40.0475 -79.5011 302° West 422 486 33,000 1,600 Climbing Cleveland Center
Sun 01:17:57 PM 40.1131 -79.6247 305° West 416 479 34,600 1,500 Climbing Cleveland Center
Sun 01:18:57 PM 40.1725 -79.7381 304° West 404 465 36,000 700 Climbing Cleveland Center
Sun 01:19:57 PM 40.2317 -79.8569 303° West 393 452 36,000  Level Cleveland Center
Sun 01:20:58 PM 40.2928 -79.9761 304° West 393 452 36,000  Level Cleveland Center
Sun 01:21:57 PM 40.3475 -80.0956 301° West 404 465 36,000  Level Cleveland Center
Sun 01:22:57 PM 40.4106 -80.2203 304° West 415 478 36,000  Level Cleveland Center
Sun 01:23:57 PM 40.4775 -80.3539 303° West 421 484 36,000  Level Cleveland Center
Sun 01:24:58 PM 40.5425 -80.4739 306° West 421 484 36,000  Level Cleveland Center
Sun 01:25:57 PM 40.6028 -80.6022 302° West 421 484 36,000  Level Cleveland Center
Sun 01:26:57 PM 40.6675 -80.7281 304° West 421 484 36,000  Level Cleveland Center
Sun 01:27:57 PM 40.7319 -80.8544 304° West 416 479 36,000  Level Cleveland Center
Sun 01:28:57 PM 40.7961 -80.9836 303° West 416 479 36,000  Level Cleveland Center
Sun 01:29:57 PM 40.8622 -81.1322 301° West 421 484 36,000  Level Cleveland Center
Sun 01:30:57 PM 40.9281 -81.2647 303° West 427 491 36,000  Level Cleveland Center
Sun 01:31:57 PM 40.9897 -81.3972 302° West 433 498 36,000  Level Cleveland Center
Sun 01:32:57 PM 41.0575 -81.5331 304° West 433 498 36,000  Level Cleveland Center
Sun 01:33:57 PM 41.1189 -81.6692 301° West 433 498 36,000  Level Cleveland Center
Sun 01:34:57 PM 41.1844 -81.7917 305° West 438 504 36,000  Level Cleveland Center
Sun 01:35:57 PM 41.2494 -81.9253 303° West 438 504 36,000  Level Cleveland Center
Sun 01:36:57 PM 41.3144 -82.0650 302° West 438 504 36,000  Level Cleveland Center
Sun 01:37:57 PM 41.3875 -82.2244 301° West 445 512 36,000  Level Cleveland Center
Sun 01:38:57 PM 41.4606 -82.3536 307° West 450 518 36,000  Level Cleveland Center
Sun 01:39:57 PM 41.5333 -82.4889 306° West 450 518 36,000  Level Cleveland Center
Sun 01:40:57 PM 41.6081 -82.6272 306° West 455 524 36,000  Level Cleveland Center
Sun 01:41:57 PM 41.6767 -82.7600 305° West 455 524 36,000  Level Cleveland Center
Sun 01:42:57 PM 41.7489 -82.8961 305° West 455 524 36,000  Level Cleveland Center
Sun 01:43:57 PM 41.8214 -83.0297 306° West 455 524 36,000  Level Cleveland Center
Sun 01:44:57 PM 41.8914 -83.1633 305° West 455 524 36,000  Level Cleveland Center
Sun 01:45:57 PM 41.9592 -83.2889 306° West 461 531 36,000  Level Cleveland Center
Sun 01:46:57 PM 42.0225 -83.4342 300° West 456 525 36,000  Level Cleveland Center
Sun 01:47:57 PM 42.0325 -83.6164 274° West 432 497 36,000  Level Cleveland Center
Sun 01:48:57 PM 42.0197 -83.7753 264° West 432 497 36,000  Level Cleveland Center
Sun 01:49:57 PM 42.0067 -83.9394 264° West 432 497 36,000  Level Cleveland Center
Sun 01:50:57 PM 41.9914 -84.1008 263° West 442 509 36,000  Level Cleveland Center
Sun 01:53:21 PM 41.9608 -84.4747 264° West 438 504 36,000  Level Chicago Center
Sun 01:54:23 PM 41.9456 -84.6386 263° West 443 510 36,000  Level Chicago Center
Sun 01:55:25 PM 41.9314 -84.8028 263° West 443 510 36,000  Level Chicago Center
Sun 01:56:27 PM 41.9125 -85.0003 263° West 447 514 36,000  Level Chicago Center
Sun 01:57:29 PM 41.8975 -85.1639 263° West 447 514 36,000  Level Chicago Center
Sun 01:58:31 PM 41.8819 -85.3267 263° West 446 513 36,000  Level Chicago Center
Sun 01:59:33 PM 41.8644 -85.4875 262° West 442 509 36,000  Level Chicago Center
Sun 02:00:35 PM 41.8483 -85.6506 262° West 448 516 36,000  Level Chicago Center
Sun 02:01:37 PM 41.8283 -85.8450 262° West 445 512 36,000  Level Chicago Center
Sun 02:02:39 PM 41.8114 -86.0081 262° West 445 512 36,000  Level Chicago Center
Sun 02:03:41 PM 41.7942 -86.1694 262° West 443 510 36,000  Level Chicago Center
Sun 02:04:43 PM 41.7772 -86.3331 262° West 445 512 36,000  Level Chicago Center
Sun 02:05:45 PM 41.7592 -86.4972 262° West 447 514 36,000  Level Chicago Center
Sun 02:06:47 PM 41.7406 -86.6628 261° West 448 516 36,000  Level Chicago Center
Sun 02:07:49 PM 41.7178 -86.8572 261° West 447 514 36,000 49 Level Chicago Center
Sun 02:08:50 PM 41.6994 -87.0247 262° West 455 524 36,100  Climbing Chicago Center
Sun 02:09:52 PM 41.6825 -87.1900 262° West 451 519 36,000 -48 Descending Chicago Center
Sun 02:10:54 PM 41.6642 -87.3531 261° West 446 513 36,000  Level Chicago Center
Sun 02:11:56 PM 41.6400 -87.5478 261° West 444 511 36,000  Level Chicago Center
Sun 02:12:58 PM 41.6206 -87.7086 261° West 443 510 36,000  Level Chicago Center
Sun 02:14:00 PM 41.6017 -87.8672 261° West 440 506 36,000  Level Chicago Center
Sun 02:15:02 PM 41.5828 -88.0250 261° West 442 509 36,000  Level Chicago Center
Sun 02:16:05 PM 41.5592 -88.2122 260° West 439 505 36,000  Level Chicago Center
Sun 02:17:06 PM 41.5467 -88.3706 264° West 441 507 36,000  Level Chicago Center
Sun 02:18:08 PM 41.5469 -88.5264 270° West 430 495 36,000  Level Chicago Center
Sun 02:20:12 PM 41.5464 -88.8425 270° West 428 493 36,000  Level Chicago Center
Sun 02:21:14 PM 41.5450 -89.0311 269° West 427 491 36,000  Level Chicago Center
Sun 02:22:16 PM 41.5447 -89.1911 270° West 432 497 36,000  Level Chicago Center
Sun 02:23:18 PM 41.5442 -89.3517 270° West 435 501 36,000  Level Chicago Center
Sun 02:24:20 PM 41.5458 -89.5147 271° West 440 506 36,000  Level Chicago Center
Sun 02:25:22 PM 41.5431 -89.6822 269° West 440 506 36,000  Level Chicago Center
Sun 02:26:24 PM 41.5411 -89.8447 269° West 440 506 36,000  Level Chicago Center
Sun 02:27:26 PM 41.5406 -90.0072 270° West 439 505 36,000  Level Chicago Center
Sun 02:28:29 PM 41.5378 -90.1997 269° West 434 499 36,000  Level Chicago Center
Sun 02:29:31 PM 41.5336 -90.3633 268° West 443 510 36,000  Level Chicago Center
Sun 02:30:33 PM 41.5325 -90.5217 270° West 423 487 36,000  Level Chicago Center
Sun 02:31:35 PM 41.5283 -90.6811 268° West 438 504 36,000  Level Chicago Center
Sun 02:32:37 PM 41.5264 -90.8400 269° West 433 498 36,000  Level Chicago Center
Sun 02:33:39 PM 41.5214 -91.0311 268° West 433 498 36,000  Level Chicago Center
Sun 02:34:41 PM 41.5186 -91.1925 269° West 428 493 36,000  Level Chicago Center
Sun 02:35:43 PM 41.5156 -91.3450 269° West 427 491 36,000  Level Chicago Center
Sun 02:36:45 PM 41.5111 -91.4994 268° West 421 484 36,000  Level Chicago Center
Sun 02:37:47 PM 41.5078 -91.6561 268° West 423 487 36,000  Level Chicago Center
Sun 02:38:49 PM 41.5022 -91.8433 268° West 423 487 36,000  Level Chicago Center
Sun 02:39:51 PM 41.4978 -91.9978 268° West 420 483 36,000  Level Chicago Center
Sun 02:40:53 PM 41.4931 -92.1525 268° West 420 483 36,000  Level Chicago Center
Sun 02:41:55 PM 41.4889 -92.3078 268° West 421 484 36,000  Level Chicago Center
Sun 02:42:57 PM 41.4836 -92.4636 267° West 417 480 36,000  Level Chicago Center
Sun 02:44:00 PM 41.4772 -92.6469 267° West 417 480 36,000  Level Chicago Center
Sun 02:44:23 PM 41.4753 -92.7097 268° West 417 480 36,000  Level Minneapolis Center
Sun 02:45:25 PM 41.4694 -92.8614 267° West 415 478 36,000  Level Minneapolis Center
Sun 02:46:27 PM 41.4639 -93.0136 267° West 416 479 36,000  Level Minneapolis Center
Sun 02:47:29 PM 41.4572 -93.1719 267° West 420 483 36,000  Level Minneapolis Center
Sun 02:48:31 PM 41.4519 -93.3244 267° West 421 484 36,000  Level Minneapolis Center
Sun 02:49:33 PM 41.4433 -93.5103 267° West 422 486 36,000  Level Minneapolis Center
Sun 02:50:35 PM 41.4369 -93.6617 267° West 419 482 36,000  Level Minneapolis Center
Sun 02:51:37 PM 41.4133 -93.8164 259° West 425 489 36,000  Level Minneapolis Center
Sun 02:52:39 PM 41.3892 -93.9694 258° West 427 491 36,000  Level Minneapolis Center
Sun 02:53:41 PM 41.3664 -94.1225 259° West 426 490 36,000  Level Minneapolis Center
Sun 02:54:43 PM 41.3392 -94.2983 258° West 427 491 36,000  Level Minneapolis Center
Sun 02:55:45 PM 41.3142 -94.4522 258° West 426 490 36,000  Level Minneapolis Center
Sun 02:56:47 PM 41.2886 -94.6067 258° West 426 490 36,000  Level Minneapolis Center
Sun 02:57:48 PM 41.2642 -94.7606 258° West 426 490 36,000  Level Minneapolis Center
Sun 02:58:50 PM 41.2347 -94.9439 258° West 423 487 36,000  Level Minneapolis Center
Sun 02:59:52 PM 41.2100 -95.0972 258° West 423 487 36,000  Level Minneapolis Center
Sun 03:00:54 PM 41.1828 -95.2497 257° West 424 488 36,000  Level Minneapolis Center
Sun 03:01:56 PM 41.1575 -95.4067 258° West 430 495 36,000  Level Minneapolis Center
Sun 03:02:58 PM 41.1306 -95.5603 257° West 426 490 36,000  Level Minneapolis Center
Sun 03:04:00 PM 41.1039 -95.7147 257° West 426 490 36,000  Level Minneapolis Center
Sun 03:05:02 PM 41.0769 -95.8714 257° West 429 494 36,000  Level Minneapolis Center
Sun 03:06:16 PM 41.0494 -96.0272 257° West 429 494 36,000  Level Minneapolis Center
Sun 03:07:18 PM 41.0178 -96.2133 257° West 429 494 36,000  Level Minneapolis Center
Sun 03:08:20 PM 40.9850 -96.3983 257° West 428 493 36,000  Level Minneapolis Center
Sun 03:09:22 PM 40.9578 -96.5531 257° West 429 494 36,000  Level Minneapolis Center
Sun 03:10:23 PM 40.9297 -96.7083 257° West 432 497 36,000  Level Minneapolis Center
Sun 03:11:25 PM 40.9017 -96.8611 256° West 429 494 36,000  Level Minneapolis Center
Sun 03:12:27 PM 40.8744 -97.0133 257° West 427 491 36,000  Level Minneapolis Center
Sun 03:13:29 PM 40.8464 -97.1650 256° West 426 490 36,000  Level Minneapolis Center
Sun 03:14:31 PM 40.8181 -97.3153 256° West 424 488 36,000  Level Minneapolis Center
Sun 03:15:32 PM 40.7875 -97.4778 256° West 424 488 36,000  Level Minneapolis Center
Sun 03:16:34 PM 40.7583 -97.6289 256° West 424 488 36,000  Level Minneapolis Center
Sun 03:17:36 PM 40.7300 -97.7789 256° West 422 486 36,000  Level Minneapolis Center
Sun 03:18:38 PM 40.7017 -97.9297 256° West 422 486 36,000  Level Minneapolis Center
Sun 03:19:40 PM 40.6664 -98.1119 256° West 425 489 36,000  Level Minneapolis Center
Sun 03:20:41 PM 40.6364 -98.2625 255° West 424 488 36,000  Level Minneapolis Center
Sun 03:21:43 PM 40.6142 -98.4153 259° West 424 488 36,000  Level Minneapolis Center
Sun 03:22:45 PM 40.6167 -98.5706 271° West 424 488 36,000 49 Level Minneapolis Center
Sun 03:23:46 PM 40.6283 -98.6947 277° West 424 488 36,100  Climbing Minneapolis Center
Sun 03:24:48 PM 40.6447 -98.8789 277° West 421 484 36,000 -48 Descending Minneapolis Center
Sun 03:25:50 PM 40.6581 -99.0325 277° West 420 483 36,000  Level Minneapolis Center
Sun 03:26:52 PM 40.6706 -99.1864 276° West 420 483 36,000  Level Minneapolis Center
Sun 03:27:13 PM 40.6758 -99.2481 276° West 422 486 36,000  Level Denver Center
Sun 03:28:15 PM 40.6897 -99.4022 277° West 422 486 36,000  Level Denver Center
Sun 03:29:17 PM 40.7019 -99.5550 276° West 418 481 36,000  Level Denver Center
Sun 03:30:19 PM 40.7144 -99.7097 276° West 423 487 36,000  Level Denver Center
Sun 03:31:21 PM 40.7283 -99.8903 276° West 422 486 36,000  Level Denver Center
Sun 03:32:23 PM 40.7400 -100.0358 276° West 419 482 36,000  Level Denver Center
Sun 03:33:25 PM 40.7528 -100.2072 276° West 422 486 36,000  Level Denver Center
Sun 03:34:27 PM 40.7642 -100.3553 276° West 423 487 36,000  Level Denver Center
Sun 03:35:29 PM 40.7772 -100.5283 276° West 424 488 36,000  Level Denver Center
Sun 03:36:30 PM 40.7833 -100.6519 274° West 421 484 36,000  Level Denver Center
Sun 03:37:33 PM 40.7575 -100.8339 259° West 436 502 36,000  Level Denver Center
Sun 03:38:35 PM 40.7281 -101.0058 257° West 429 494 36,000  Level Denver Center
Sun 03:39:37 PM 40.7028 -101.1522 257° West 428 493 36,000  Level Denver Center
Sun 03:40:39 PM 40.6739 -101.3217 257° West 425 489 36,000  Level Denver Center
Sun 03:41:41 PM 40.6478 -101.4681 257° West 429 494 36,000  Level Denver Center
Sun 03:42:43 PM 40.6219 -101.6136 257° West 427 491 36,000  Level Denver Center
Sun 03:43:44 PM 40.5919 -101.7819 257° West 426 490 36,000  Level Denver Center
Sun 03:44:46 PM 40.5658 -101.9278 257° West 427 491 36,000  Level Denver Center
Sun 03:45:48 PM 40.5347 -102.0969 256° West 426 490 36,000  Level Denver Center
Sun 03:46:50 PM 40.5086 -102.2406 257° West 424 488 36,000  Level Denver Center
Sun 03:47:52 PM 40.4772 -102.4089 256° West 425 489 36,000  Level Denver Center
Sun 03:48:54 PM 40.4500 -102.5544 256° West 429 494 36,000  Level Denver Center
Sun 03:49:56 PM 40.4214 -102.7031 256° West 431 496 36,000 -774 Level Denver Center
Sun 03:50:58 PM 40.3894 -102.8825 257° West 429 494 34,400 -2,468 Descending Denver Center
Sun 03:52:00 PM 40.3600 -103.0361 256° West 431 496 30,900 -3,387 Descending Denver Center
Sun 03:53:02 PM 40.3286 -103.1939 255° West 442 509 27,400 -3,145 Descending Denver Center
Sun 03:54:04 PM 40.2989 -103.3492 256° West 436 502 24,400 -2,903 Descending Denver Center
Sun 03:55:06 PM 40.2689 -103.5019 256° West 430 495 21,400 -2,903 Descending Denver Center
Sun 03:56:08 PM 40.2403 -103.6481 256° West 416 479 18,400 -2,371 Descending Denver Center
Sun 03:57:10 PM 40.2094 -103.8053 256° West 394 453 16,500 -1,355 Descending Denver Center
Sun 03:58:12 PM 40.1642 -103.9144 242° Southwest 333 383 15,600 -1,306 Descending Denver Center
Sun 03:59:14 PM 40.1158 -104.0150 238° Southwest 296 341 13,800 -1,258 Descending Denver Center
Sun 04:00:16 PM 40.0744 -104.1042 239° Southwest 283 326 13,000 -387 Descending Denver Center
Sun 04:01:18 PM 40.0267 -104.1742 228° Southwest 252 290 13,000 -774 Level Denver Center
Sun 04:02:20 PM 39.9731 -104.2206 214° Southwest 250 288 11,400 -1,742 Descending Denver Center
Sun 04:03:22 PM 39.9458 -104.3028 247° West 247 284 9,400 -1,935 Descending Denver Center

Login

Don't have an account? Register now (free) for customized features, flight alerts, and more!